Terminal Aerodrome Forecast
Issued by NWS

Home | Current Version | Previous Version | Text Only | Print | Product List | Glossary On
Versions: 1 2 3 4 5 6 7 8 9 10 11 12 13 14 15 16 17
593
FTAK31 PAJN 161123
TAFAYA
TAF
PAYA 161123Z 1612/1712 09008KT 6SM -SHRA OVC050
     FM161400 10008KT 5SM -SHRA BR SCT015 OVC030
     FM161800 11016G25KT 6SM -SHRA BR OVC025 WS020/13045KT
     FM162100 10013G22KT P6SM VCSH OVC035 WS020/13040KT
     FM170900 09013G22KT 6SM -RA BKN025 OVC035 WS020/14045KT
      AMD NOT SKED=

USA.gov is the U.S. government's official web portal to all federal, state and local government web resources and services.